createdAt,value
2022-12-31T00:03:34.303Z,24.20
2022-12-31T00:06:01.105Z,24.85
2022-12-31T00:08:28.064Z,24.95
2022-12-31T00:10:54.757Z,25.50
2022-12-31T00:13:21.825Z,27.95
2022-12-31T00:15:48.565Z,26.30
2022-12-31T00:18:15.327Z,25.75
2022-12-31T00:20:42.353Z,26.92
2022-12-31T00:23:10.698Z,28.02
2022-12-31T00:25:38.284Z,27.80
2022-12-31T00:28:05.469Z,27.48
2022-12-31T00:30:32.350Z,27.10
2022-12-31T00:32:59.166Z,27.45
2022-12-31T00:35:26.888Z,25.10
2022-12-31T00:37:53.673Z,26.85
2022-12-31T00:40:20.517Z,26.05
2022-12-31T00:42:47.341Z,25.90
2022-12-31T00:45:14.177Z,26.15
2022-12-31T00:47:40.907Z,24.90
2022-12-31T00:50:07.977Z,26.45
2022-12-31T00:52:34.741Z,22.88
2022-12-31T00:55:01.456Z,25.05
2022-12-31T00:57:28.190Z,23.58
2022-12-31T00:59:54.956Z,25.25
2022-12-31T01:02:21.879Z,22.85
2022-12-31T01:04:48.838Z,24.48
2022-12-31T01:07:15.575Z,23.33
2022-12-31T01:09:42.399Z,24.30
2022-12-31T01:12:09.271Z,25.05
2022-12-31T01:14:36.004Z,23.67
2022-12-31T01:17:02.894Z,24.63
2022-12-31T01:19:29.960Z,24.20
2022-12-31T01:21:57.222Z,22.95
2022-12-31T01:24:24.744Z,24.27
2022-12-31T01:26:51.951Z,23.17
2022-12-31T01:29:18.864Z,23.90
2022-12-31T01:31:45.892Z,23.70
2022-12-31T01:34:12.737Z,24.70
2022-12-31T01:36:39.597Z,23.75
2022-12-31T01:39:08.058Z,26.17
2022-12-31T01:41:44.960Z,25.10
2022-12-31T01:44:11.701Z,25.38
2022-12-31T01:46:52.208Z,26.92
2022-12-31T01:49:24.586Z,26.33
2022-12-31T01:51:56.583Z,25.65
2022-12-31T01:54:27.409Z,28.98
2022-12-31T01:56:56.544Z,26.77
2022-12-31T01:59:26.980Z,26.27
2022-12-31T02:01:54.590Z,25.27
2022-12-31T02:04:24.096Z,25.77
2022-12-31T02:06:56.434Z,25.77
2022-12-31T02:09:23.235Z,25.73
2022-12-31T02:11:49.973Z,25.05
2022-12-31T02:14:30.892Z,25.65
2022-12-31T02:17:16.224Z,24.58
2022-12-31T02:20:04.243Z,23.75
2022-12-31T02:22:55.926Z,23.95
2022-12-31T02:25:34.793Z,23.50
2022-12-31T02:28:04.568Z,24.52
2022-12-31T02:30:33.131Z,24.42
2022-12-31T02:33:13.982Z,24.27
2022-12-31T02:35:48.301Z,24.08
2022-12-31T02:38:30.232Z,23.30
2022-12-31T02:40:57.961Z,23.38
2022-12-31T02:43:25.505Z,24.70
2022-12-31T02:46:01.248Z,23.83
2022-12-31T02:48:37.168Z,24.25
2022-12-31T02:51:19.289Z,23.58
2022-12-31T02:53:48.945Z,24.98
2022-12-31T02:56:38.456Z,25.48
2022-12-31T02:59:29.965Z,25.55
2022-12-31T03:02:16.683Z,25.88
2022-12-31T03:04:49.654Z,24.15
2022-12-31T03:07:28.001Z,25.27
2022-12-31T03:09:55.558Z,24.67
2022-12-31T03:12:47.005Z,25.65
2022-12-31T03:15:21.745Z,25.13
2022-12-31T03:17:49.817Z,25.67
2022-12-31T03:20:35.352Z,25.70
2022-12-31T03:23:04.012Z,24.88
2022-12-31T03:25:38.153Z,24.02
2022-12-31T03:28:11.333Z,25.02
2022-12-31T03:30:41.094Z,24.13
2022-12-31T03:33:09.156Z,25.52
2022-12-31T03:35:37.759Z,24.67
2022-12-31T03:38:05.094Z,24.60
2022-12-31T03:40:34.997Z,26.15
2022-12-31T03:43:01.837Z,26.40
2022-12-31T03:45:28.712Z,25.85
2022-12-31T03:47:55.451Z,25.50
2022-12-31T03:50:22.405Z,25.02
2022-12-31T03:52:49.205Z,25.55
2022-12-31T03:55:16.084Z,25.02
2022-12-31T03:57:43.233Z,24.23
2022-12-31T04:00:14.200Z,22.50
2022-12-31T04:02:41.694Z,24.27
2022-12-31T04:05:08.916Z,23.75
2022-12-31T04:07:35.810Z,23.55
2022-12-31T04:10:04.468Z,25.02
2022-12-31T04:12:31.284Z,24.25
2022-12-31T04:14:58.628Z,25.45
2022-12-31T04:17:25.685Z,25.63
2022-12-31T04:19:52.511Z,26.17
2022-12-31T04:22:19.735Z,25.92
2022-12-31T04:24:46.569Z,25.85
2022-12-31T04:27:14.094Z,28.33
2022-12-31T04:29:40.837Z,25.35
2022-12-31T04:32:08.804Z,25.13
2022-12-31T04:34:36.002Z,28.27
2022-12-31T04:37:03.406Z,27.17
2022-12-31T04:39:30.310Z,28.52
2022-12-31T04:41:57.094Z,27.38
2022-12-31T04:44:23.873Z,28.17
2022-12-31T04:46:50.574Z,25.60
2022-12-31T04:49:17.323Z,26.45
2022-12-31T04:51:44.139Z,24.90
2022-12-31T04:54:11.136Z,25.85
2022-12-31T04:56:37.953Z,24.85
2022-12-31T04:59:05.436Z,23.38
2022-12-31T05:01:33.199Z,24.13
2022-12-31T05:04:00.354Z,23.73
2022-12-31T05:06:27.244Z,24.20
2022-12-31T05:08:54.357Z,23.05
2022-12-31T05:11:21.173Z,23.48
2022-12-31T05:13:47.927Z,24.45
2022-12-31T05:16:14.815Z,23.25
2022-12-31T05:18:41.635Z,22.27
2022-12-31T05:21:08.568Z,22.05
2022-12-31T05:23:35.661Z,21.42
2022-12-31T05:26:02.479Z,20.98
2022-12-31T05:28:29.343Z,19.67
2022-12-31T05:30:56.345Z,23.92
2022-12-31T05:33:23.332Z,24.70
2022-12-31T05:35:50.625Z,21.95
2022-12-31T05:38:17.433Z,21.13
2022-12-31T05:40:44.435Z,21.60
2022-12-31T05:43:11.276Z,19.52
2022-12-31T05:45:38.048Z,20.42
2022-12-31T05:48:05.151Z,18.60
2022-12-31T05:50:32.067Z,19.45
2022-12-31T05:52:58.879Z,19.40
2022-12-31T05:55:25.654Z,18.38
2022-12-31T05:57:52.372Z,18.65
2022-12-31T06:00:19.255Z,18.25
2022-12-31T06:02:46.336Z,18.33
2022-12-31T06:05:13.185Z,20.10
2022-12-31T06:07:39.992Z,20.30
2022-12-31T06:10:07.864Z,20.08
2022-12-31T06:12:35.593Z,19.63
2022-12-31T06:15:02.487Z,20.98
2022-12-31T06:17:30.315Z,20.15
2022-12-31T06:19:57.110Z,19.75
2022-12-31T06:22:23.987Z,20.35
2022-12-31T06:24:50.719Z,20.50
2022-12-31T06:27:17.506Z,22.48
2022-12-31T06:29:45.825Z,23.35
2022-12-31T06:32:12.793Z,20.60
2022-12-31T06:34:39.536Z,22.95
2022-12-31T06:37:06.380Z,29.65
2022-12-31T06:39:33.188Z,29.30
2022-12-31T06:42:00.377Z,25.08
2022-12-31T06:44:27.161Z,23.33
2022-12-31T06:46:53.961Z,23.30
2022-12-31T06:49:20.839Z,22.25
2022-12-31T06:51:48.011Z,23.48
2022-12-31T06:54:14.862Z,22.30
2022-12-31T06:56:42.266Z,22.63
2022-12-31T06:59:24.309Z,22.63
2022-12-31T07:02:14.457Z,21.50
2022-12-31T07:07:32.807Z,18.83
2022-12-31T07:10:29.904Z,20.38
2022-12-31T07:13:08.993Z,24.67
2022-12-31T07:16:00.292Z,21.95
2022-12-31T07:18:52.976Z,21.23
2022-12-31T07:21:30.179Z,22.85
2022-12-31T07:23:57.187Z,22.83
2022-12-31T07:26:36.174Z,21.40
2022-12-31T07:29:17.179Z,22.02
2022-12-31T07:31:53.107Z,23.38
2022-12-31T07:34:46.521Z,22.55
2022-12-31T07:37:38.292Z,22.67
2022-12-31T07:40:38.936Z,20.73
2022-12-31T07:43:14.873Z,22.60
2022-12-31T07:45:50.848Z,21.85
2022-12-31T07:48:26.920Z,22.00
2022-12-31T07:50:56.171Z,23.38
2022-12-31T07:53:24.816Z,23.23
2022-12-31T07:56:01.182Z,21.70
2022-12-31T07:58:39.948Z,21.45
2022-12-31T08:01:15.860Z,21.88
2022-12-31T08:04:00.815Z,20.10
2022-12-31T08:06:52.095Z,21.50
2022-12-31T08:09:35.830Z,21.65
2022-12-31T08:12:03.292Z,22.23
2022-12-31T08:14:31.016Z,22.15
2022-12-31T08:16:58.524Z,22.38
2022-12-31T08:19:30.106Z,22.80
2022-12-31T08:22:32.686Z,22.08
2022-12-31T08:25:02.469Z,22.33
2022-12-31T08:28:01.052Z,22.20
2022-12-31T08:30:53.889Z,22.23
2022-12-31T08:33:38.391Z,25.27
2022-12-31T08:36:33.180Z,21.67
2022-12-31T08:39:21.295Z,21.17
2022-12-31T08:41:55.238Z,19.75
2022-12-31T08:44:46.165Z,20.67
2022-12-31T08:47:48.688Z,21.50
2022-12-31T08:50:18.026Z,20.50
2022-12-31T08:52:45.939Z,20.83
2022-12-31T08:55:15.580Z,20.58
2022-12-31T08:57:58.219Z,19.60
2022-12-31T09:00:27.651Z,21.17
2022-12-31T09:03:13.393Z,22.25
2022-12-31T09:05:58.367Z,19.77
2022-12-31T09:08:55.889Z,20.67
2022-12-31T09:11:23.600Z,20.45
2022-12-31T09:13:56.389Z,22.23
2022-12-31T09:16:34.278Z,20.83
2022-12-31T09:19:01.159Z,23.23
2022-12-31T09:21:28.030Z,22.08
2022-12-31T09:23:55.060Z,21.45
2022-12-31T09:26:39.917Z,20.83
2022-12-31T09:29:25.354Z,27.02
2022-12-31T09:32:07.189Z,18.67
2022-12-31T09:34:57.031Z,21.27
2022-12-31T09:37:55.288Z,19.50
2022-12-31T09:40:46.716Z,19.33
2022-12-31T09:43:16.427Z,17.08
2022-12-31T09:46:00.045Z,17.30
2022-12-31T09:48:51.987Z,18.13
2022-12-31T09:51:27.971Z,16.23
2022-12-31T09:54:13.031Z,18.70
2022-12-31T09:57:01.775Z,19.65
2022-12-31T09:59:45.838Z,19.98
2022-12-31T10:02:50.979Z,17.85
2022-12-31T10:05:36.402Z,18.30
2022-12-31T10:08:35.901Z,17.80
2022-12-31T10:11:29.445Z,18.42
2022-12-31T10:14:22.303Z,15.90
2022-12-31T10:16:58.965Z,16.25
2022-12-31T10:20:02.983Z,15.65
2022-12-31T10:22:51.547Z,15.75
2022-12-31T10:25:21.237Z,16.58
2022-12-31T10:28:31.043Z,16.02
2022-12-31T10:31:07.991Z,15.60
2022-12-31T10:34:05.139Z,15.02
2022-12-31T10:36:52.150Z,16.15
2022-12-31T10:39:29.880Z,16.48
2022-12-31T10:42:26.244Z,16.25
2022-12-31T10:45:13.283Z,16.88
2022-12-31T10:48:08.654Z,17.77
2022-12-31T10:51:03.148Z,15.13
2022-12-31T10:53:32.714Z,16.33
2022-12-31T10:56:21.534Z,15.98
2022-12-31T10:59:25.721Z,16.67
2022-12-31T11:02:16.179Z,15.93
2022-12-31T11:05:10.406Z,15.70
2022-12-31T11:08:08.911Z,15.15
2022-12-31T11:10:47.496Z,14.07
2022-12-31T11:13:41.864Z,14.45
2022-12-31T11:16:26.965Z,14.20
2022-12-31T11:19:23.107Z,13.80
2022-12-31T11:22:25.709Z,15.32
2022-12-31T11:25:11.430Z,14.15
2022-12-31T11:27:47.691Z,13.13
2022-12-31T11:30:40.361Z,12.75
2022-12-31T11:33:07.268Z,11.35
2022-12-31T11:36:11.138Z,12.10
2022-12-31T11:38:51.755Z,11.18
2022-12-31T11:41:27.394Z,11.07
2022-12-31T11:44:13.377Z,11.70
2022-12-31T11:47:07.936Z,10.18
2022-12-31T11:50:18.200Z,10.02
2022-12-31T11:53:24.160Z,8.77
2022-12-31T11:56:12.824Z,8.55
2022-12-31T11:58:45.671Z,10.73
2022-12-31T12:01:25.029Z,10.80
2022-12-31T12:03:52.083Z,11.60
2022-12-31T12:06:25.884Z,10.75
2022-12-31T12:08:53.669Z,11.75
2022-12-31T12:11:26.514Z,12.18
2022-12-31T12:13:53.692Z,11.77
2022-12-31T12:16:23.138Z,10.30
2022-12-31T12:19:02.515Z,10.63
2022-12-31T12:24:05.875Z,9.75
2022-12-31T12:26:42.964Z,9.35
2022-12-31T12:29:12.926Z,9.32
2022-12-31T12:34:21.376Z,9.38
2022-12-31T12:36:48.572Z,8.35
2022-12-31T12:39:23.233Z,8.40
2022-12-31T12:42:19.383Z,7.57
2022-12-31T12:44:46.084Z,8.88
2022-12-31T12:47:17.796Z,9.07
2022-12-31T12:49:47.267Z,8.70
2022-12-31T12:52:43.181Z,8.82
2022-12-31T12:55:28.369Z,8.38
2022-12-31T12:58:05.117Z,8.43
2022-12-31T13:00:44.763Z,8.30
2022-12-31T13:03:26.683Z,8.52
2022-12-31T13:05:56.874Z,8.32
2022-12-31T13:08:42.108Z,7.50
2022-12-31T13:11:47.230Z,8.30
2022-12-31T13:14:23.087Z,7.90
2022-12-31T13:16:59.385Z,8.50
2022-12-31T13:19:45.243Z,7.13
2022-12-31T13:22:23.435Z,7.65
2022-12-31T13:25:27.702Z,8.15
2022-12-31T13:27:58.699Z,8.07
2022-12-31T13:30:33.470Z,7.70
2022-12-31T13:33:18.515Z,8.20
2022-12-31T13:35:57.806Z,9.13
2022-12-31T13:38:48.725Z,10.85
2022-12-31T13:41:22.993Z,9.90
2022-12-31T13:44:26.491Z,9.73
2022-12-31T13:47:22.165Z,8.85
2022-12-31T13:50:02.877Z,9.00
2022-12-31T13:52:53.171Z,9.27
2022-12-31T13:55:32.454Z,8.18
2022-12-31T13:57:59.177Z,8.82
2022-12-31T14:00:31.695Z,7.68
2022-12-31T14:03:13.728Z,7.80
2022-12-31T14:06:01.156Z,8.77
2022-12-31T14:08:28.227Z,7.80
2022-12-31T14:11:07.807Z,7.90
2022-12-31T14:13:40.346Z,7.97
2022-12-31T14:16:38.107Z,7.90
2022-12-31T14:19:31.128Z,7.13
2022-12-31T14:22:17.201Z,7.03
2022-12-31T14:24:44.519Z,7.63
2022-12-31T14:27:19.802Z,8.60
2022-12-31T14:30:01.869Z,7.63
2022-12-31T14:32:34.272Z,17.13
2022-12-31T14:35:37.450Z,12.52
2022-12-31T14:38:25.786Z,9.02
2022-12-31T14:41:23.071Z,11.88
2022-12-31T14:44:20.883Z,11.60
2022-12-31T14:47:04.906Z,9.15
2022-12-31T14:49:55.968Z,9.45
2022-12-31T14:52:32.575Z,8.18
2022-12-31T14:55:21.160Z,9.82
2022-12-31T14:58:26.564Z,8.90
2022-12-31T15:00:53.738Z,7.28
2022-12-31T15:03:25.261Z,6.75
2022-12-31T15:06:01.955Z,6.00
2022-12-31T15:08:47.137Z,6.35
2022-12-31T15:11:31.477Z,7.07
2022-12-31T15:14:23.109Z,9.73
2022-12-31T15:17:08.627Z,11.68
2022-12-31T15:20:07.965Z,15.35
2022-12-31T15:22:47.421Z,14.88
2022-12-31T15:25:40.261Z,13.50
2022-12-31T15:28:31.508Z,13.35
2022-12-31T15:31:18.168Z,13.02
2022-12-31T15:34:01.214Z,13.75
2022-12-31T15:36:35.792Z,13.00
2022-12-31T15:39:11.961Z,12.80
2022-12-31T15:41:46.028Z,12.40
2022-12-31T15:44:59.503Z,14.35
2022-12-31T15:47:43.327Z,12.75
2022-12-31T15:50:20.495Z,15.80
2022-12-31T15:52:55.356Z,15.93
2022-12-31T15:55:33.945Z,18.52
2022-12-31T15:58:06.480Z,20.98
2022-12-31T16:01:10.084Z,15.27
2022-12-31T16:03:37.559Z,11.35
2022-12-31T16:06:11.669Z,13.23
2022-12-31T16:08:38.936Z,10.95
2022-12-31T16:11:07.717Z,21.70
2022-12-31T16:13:41.393Z,28.25
2022-12-31T16:16:23.757Z,22.25
2022-12-31T16:18:51.692Z,18.45
2022-12-31T16:21:38.713Z,13.60
2022-12-31T16:24:33.018Z,14.02
2022-12-31T16:27:09.283Z,15.73
2022-12-31T16:29:38.063Z,16.50
2022-12-31T16:32:05.082Z,15.65
2022-12-31T16:34:37.280Z,16.58
2022-12-31T16:37:16.031Z,16.70
2022-12-31T16:39:57.738Z,15.10
2022-12-31T16:42:28.639Z,18.00
2022-12-31T16:44:57.529Z,20.20
2022-12-31T16:47:36.184Z,20.90
2022-12-31T16:50:08.201Z,17.70
2022-12-31T16:52:41.155Z,17.23
2022-12-31T16:55:19.016Z,18.33
2022-12-31T16:57:55.649Z,16.63
2022-12-31T17:00:24.917Z,16.85
2022-12-31T17:03:21.296Z,16.58
2022-12-31T17:05:57.377Z,14.75
2022-12-31T17:08:28.022Z,15.43
2022-12-31T17:10:56.591Z,14.07
2022-12-31T17:13:29.572Z,12.23
2022-12-31T17:15:58.757Z,12.38
2022-12-31T17:18:30.448Z,15.27
2022-12-31T17:21:07.018Z,14.15
2022-12-31T17:23:35.960Z,14.02
2022-12-31T17:26:27.342Z,14.85
2022-12-31T17:28:56.754Z,24.75
2022-12-31T17:31:39.166Z,19.30
2022-12-31T17:34:15.219Z,23.58
2022-12-31T17:36:50.530Z,15.65
2022-12-31T17:39:19.108Z,12.80
2022-12-31T17:41:47.625Z,13.18
2022-12-31T17:44:24.077Z,17.08
2022-12-31T17:46:51.562Z,15.95
2022-12-31T17:49:22.765Z,13.30
2022-12-31T17:51:49.671Z,11.63
2022-12-31T17:54:18.306Z,12.00
2022-12-31T17:56:45.575Z,11.07
2022-12-31T17:59:22.771Z,12.75
2022-12-31T18:01:50.267Z,16.08
2022-12-31T18:04:19.176Z,17.75
2022-12-31T18:06:45.964Z,15.68
2022-12-31T18:09:12.849Z,15.07
2022-12-31T18:11:41.047Z,14.25
2022-12-31T18:14:08.578Z,18.15
2022-12-31T18:16:35.717Z,12.90
2022-12-31T18:19:02.793Z,13.07
2022-12-31T18:21:32.781Z,13.95
2022-12-31T18:26:28.010Z,14.55
2022-12-31T18:28:55.307Z,14.95
2022-12-31T18:31:30.342Z,15.35
2022-12-31T18:33:58.933Z,15.98
2022-12-31T18:36:27.205Z,32.13
2022-12-31T18:38:54.100Z,21.92
2022-12-31T18:41:24.480Z,22.33
2022-12-31T18:43:51.297Z,21.63
2022-12-31T18:46:21.494Z,21.60
2022-12-31T18:48:48.649Z,22.10
2022-12-31T18:51:18.133Z,25.05
2022-12-31T18:53:45.812Z,21.30
2022-12-31T18:56:15.163Z,37.10
2022-12-31T18:58:42.230Z,35.00
2022-12-31T19:01:28.498Z,45.53
2022-12-31T19:04:14.501Z,40.67
2022-12-31T19:06:42.713Z,34.05
2022-12-31T19:09:30.758Z,39.17
2022-12-31T19:11:56.953Z,40.25
2022-12-31T19:14:24.806Z,35.35
2022-12-31T19:16:54.391Z,39.90
2022-12-31T19:19:21.617Z,22.35
2022-12-31T19:21:48.311Z,26.55
2022-12-31T19:24:25.128Z,26.98
2022-12-31T19:26:52.012Z,18.05
2022-12-31T19:29:24.131Z,14.23
2022-12-31T19:31:51.118Z,13.98
2022-12-31T19:34:18.059Z,14.90
2022-12-31T19:36:45.267Z,17.58
2022-12-31T19:39:18.702Z,20.05
2022-12-31T19:41:46.297Z,21.42
2022-12-31T19:44:17.642Z,21.10
2022-12-31T19:46:45.475Z,15.73
2022-12-31T19:49:15.353Z,18.85
2022-12-31T19:51:42.422Z,18.10
2022-12-31T19:54:12.415Z,18.48
2022-12-31T19:56:39.514Z,18.60
2022-12-31T19:59:07.841Z,19.55
2022-12-31T20:01:34.755Z,19.63
2022-12-31T20:04:01.611Z,18.17
2022-12-31T20:06:28.651Z,18.52
2022-12-31T20:08:55.402Z,16.40
2022-12-31T20:11:23.746Z,23.38
2022-12-31T20:13:54.811Z,18.52
2022-12-31T20:16:24.670Z,25.23
2022-12-31T20:18:51.633Z,19.05
2022-12-31T20:21:21.092Z,22.73
2022-12-31T20:23:49.856Z,25.73
2022-12-31T20:26:17.822Z,20.88
2022-12-31T20:28:45.098Z,20.65
2022-12-31T20:31:17.351Z,19.92
2022-12-31T20:33:44.955Z,19.15
2022-12-31T20:36:14.742Z,16.48
2022-12-31T20:38:41.667Z,18.23
2022-12-31T20:41:14.475Z,16.60
2022-12-31T20:43:41.532Z,19.33
2022-12-31T20:46:15.588Z,18.55
2022-12-31T20:48:44.102Z,16.58
2022-12-31T20:51:12.080Z,16.35
2022-12-31T20:53:39.122Z,17.50
2022-12-31T20:56:08.044Z,18.25
2022-12-31T20:58:35.087Z,18.85
2022-12-31T21:01:05.204Z,17.65
2022-12-31T21:06:18.730Z,15.48
2022-12-31T21:08:45.648Z,15.05
2022-12-31T21:11:31.894Z,15.82
2022-12-31T21:13:59.165Z,18.17
2022-12-31T21:16:26.819Z,16.25
2022-12-31T21:18:54.408Z,18.88
2022-12-31T21:21:21.411Z,18.20
2022-12-31T21:23:48.209Z,17.05
2022-12-31T21:26:15.355Z,15.90
2022-12-31T21:28:42.587Z,15.07
2022-12-31T21:31:12.537Z,15.25
2022-12-31T21:33:39.524Z,20.52
2022-12-31T21:36:06.492Z,33.78
2022-12-31T21:38:36.839Z,28.33
2022-12-31T21:41:05.728Z,28.70
2022-12-31T21:43:32.472Z,26.27
2022-12-31T21:46:03.796Z,24.23
2022-12-31T21:48:30.648Z,19.40
2022-12-31T21:51:27.283Z,15.75
2022-12-31T21:53:54.142Z,16.25
2022-12-31T21:56:21.653Z,23.23
2022-12-31T21:59:14.919Z,23.55
2022-12-31T22:02:00.496Z,23.83
2022-12-31T22:05:00.989Z,28.42
2022-12-31T22:07:14.834Z,28.02
2022-12-31T22:09:41.649Z,30.83
2022-12-31T22:12:08.401Z,21.88
2022-12-31T22:14:35.214Z,21.35
2022-12-31T22:17:01.930Z,20.88
2022-12-31T22:19:28.657Z,17.05
2022-12-31T22:21:55.441Z,16.83
2022-12-31T22:24:22.166Z,17.83
2022-12-31T22:26:48.934Z,38.15
2022-12-31T22:29:15.726Z,18.40
2022-12-31T22:31:42.534Z,17.10
2022-12-31T22:34:09.270Z,14.68
2022-12-31T22:36:36.010Z,15.85
2022-12-31T22:39:02.714Z,18.52
2022-12-31T22:41:29.485Z,17.92
2022-12-31T22:44:03.806Z,26.48
2022-12-31T22:46:31.907Z,20.13
2022-12-31T22:48:59.898Z,20.48
2022-12-31T22:51:56.549Z,18.20
2022-12-31T22:54:14.812Z,21.95
2022-12-31T22:56:41.919Z,20.95
2022-12-31T22:59:09.392Z,23.17
2022-12-31T23:01:36.476Z,21.75
2022-12-31T23:04:03.795Z,19.83
2022-12-31T23:06:31.003Z,20.05
2022-12-31T23:09:16.201Z,24.48
2022-12-31T23:11:45.710Z,33.83
2022-12-31T23:14:36.242Z,23.10
2022-12-31T23:17:31.401Z,96.25
2022-12-31T23:20:20.778Z,96.70
2022-12-31T23:23:07.920Z,289.88
2022-12-31T23:25:37.236Z,94.80
2022-12-31T23:28:05.010Z,36.47
2022-12-31T23:30:32.092Z,42.00
2022-12-31T23:32:58.912Z,41.95
2022-12-31T23:35:25.918Z,36.42
2022-12-31T23:37:52.674Z,45.20
2022-12-31T23:40:21.860Z,57.05
2022-12-31T23:42:51.936Z,59.60
2022-12-31T23:45:18.656Z,65.57
2022-12-31T23:47:45.411Z,55.67
2022-12-31T23:50:12.118Z,61.88
2022-12-31T23:52:38.885Z,131.30
2022-12-31T23:55:05.877Z,130.23
2022-12-31T23:57:32.582Z,135.30
2022-12-31T23:59:59.738Z,113.25
